Terminal Aerodrome Forecast
Issued by NWS

Home | Current Version | Previous Version | Text Only | Print | Product List | Glossary Off
Versions: 1 2 3 4 5 6 7 8 9 10 11 12

000
FTUS43 KIWX 010500
TAFSBN
TAF
KSBN 010526Z 0106/0206 06006KT P6SM OVC025
     FM010900 04006KT P6SM BKN035
     FM011500 03010KT P6SM SCT040
     FM020000 03005KT P6SM SCT250=

USA.gov is the U.S. government's official web portal to all federal, state and local government web resources and services.